Time;durP1;ratioP1;P1;durP2;ratioP2;P2;SDS_P1;SDS_P2;PMS_P1;PMS_P2;Temp;Humidity;BMP_temperature;BMP_pressure;BME280_temperature;BME280_humidity;BME280_pressure;Samples;Min_cycle;Max_cycle;Signal;HPM_P1;HPM_P2
2023/06/19 00:01:21;;;;;;;11.73;10.73;;;20.40;99.90;;;;;;5095232;28;20493;-66
2023/06/19 00:03:51;;;;;;;11.90;10.87;;;20.40;99.90;;;;;;5096360;28;20457;-67
2023/06/19 00:06:18;;;;;;;12.97;11.77;;;20.30;99.90;;;;;;5096438;28;20463;-66
2023/06/19 00:08:45;;;;;;;12.30;11.20;;;20.30;99.90;;;;;;5096169;28;20457;-67
2023/06/19 00:11:13;;;;;;;12.10;11.10;;;20.30;99.90;;;;;;5095993;28;20463;-67
2023/06/19 00:13:40;;;;;;;11.97;11.03;;;20.30;99.90;;;;;;5096094;28;20981;-66
2023/06/19 00:16:07;;;;;;;12.07;11.13;;;20.20;99.90;;;;;;5096266;28;20497;-66
2023/06/19 00:18:39;;;;;;;11.60;10.60;;;20.30;99.90;;;;;;5096085;28;20453;-66
2023/06/19 00:21:07;;;;;;;12.10;10.93;;;20.20;99.90;;;;;;5095854;28;20792;-66
2023/06/19 00:23:34;;;;;;;12.30;11.23;;;20.20;99.90;;;;;;5095843;28;20453;-67
2023/06/19 00:26:01;;;;;;;12.73;11.53;;;20.20;99.90;;;;;;5095600;28;20544;-66
2023/06/19 00:28:29;;;;;;;12.70;11.70;;;20.20;99.90;;;;;;5095534;28;20454;-66
2023/06/19 00:30:56;;;;;;;13.10;11.83;;;20.20;99.90;;;;;;5095810;28;20453;-66
2023/06/19 00:33:23;;;;;;;13.60;12.17;;;20.20;99.90;;;;;;5095775;28;20496;-66
2023/06/19 00:35:51;;;;;;;13.87;12.33;;;20.20;99.90;;;;;;5095848;28;20507;-67
2023/06/19 00:38:18;;;;;;;12.90;11.60;;;20.20;99.90;;;;;;5095771;28;20851;-66
2023/06/19 00:40:45;;;;;;;14.30;12.90;;;20.10;99.90;;;;;;5095751;28;20535;-67
2023/06/19 00:43:13;;;;;;;13.00;11.90;;;20.10;99.90;;;;;;5095677;28;20489;-66
2023/06/19 00:45:41;;;;;;;13.40;12.33;;;20.10;99.90;;;;;;5095718;28;20464;-66
2023/06/19 00:48:08;;;;;;;13.50;12.40;;;20.10;99.90;;;;;;5095239;28;20500;-66
2023/06/19 00:50:37;;;;;;;12.00;10.90;;;20.10;99.90;;;;;;5095231;28;20456;-66
2023/06/19 00:53:04;;;;;;;12.33;11.33;;;20.10;99.90;;;;;;5094928;28;20458;-66
2023/06/19 00:55:33;;;;;;;14.00;12.90;;;20.10;99.90;;;;;;5095004;28;20457;-65
2023/06/19 00:58:01;;;;;;;12.77;11.67;;;20.10;99.90;;;;;;5095222;28;20758;-66
2023/06/19 01:00:28;;;;;;;12.60;11.60;;;20.20;99.90;;;;;;5095102;28;20488;-66
2023/06/19 01:02:56;;;;;;;15.50;14.00;;;20.10;99.90;;;;;;5095233;28;20548;-65
2023/06/19 01:05:23;;;;;;;13.97;12.77;;;20.10;99.90;;;;;;5094775;28;20489;-66
2023/06/19 01:07:59;;;;;;;13.50;12.10;;;20.10;99.90;;;;;;5095053;28;20847;-66
2023/06/19 01:10:31;;;;;;;13.17;11.90;;;20.10;99.90;;;;;;5094855;28;20532;-65
2023/06/19 01:13:02;;;;;;;13.67;12.40;;;20.10;99.90;;;;;;5094149;28;20477;-66
2023/06/19 01:15:30;;;;;;;15.10;13.10;;;20.10;99.90;;;;;;5094709;28;20532;-66
2023/06/19 01:18:01;;;;;;;13.70;12.40;;;20.10;99.90;;;;;;5095114;28;20544;-66
2023/06/19 01:20:29;;;;;;;13.53;12.33;;;20.10;99.90;;;;;;5094699;28;20476;-66
2023/06/19 01:22:57;;;;;;;13.33;12.10;;;20.00;99.90;;;;;;5094910;28;20454;-66
2023/06/19 01:25:24;;;;;;;13.17;12.07;;;20.00;99.90;;;;;;5094968;28;20453;-66
2023/06/19 01:27:52;;;;;;;13.30;12.20;;;19.90;99.90;;;;;;5094338;28;20549;-66
2023/06/19 01:30:19;;;;;;;13.03;11.83;;;19.90;99.90;;;;;;5094204;28;20514;-66
2023/06/19 01:32:54;;;;;;;13.50;12.40;;;19.90;99.90;;;;;;5094748;28;20797;-66
2023/06/19 01:35:24;;;;;;;13.33;12.23;;;19.90;99.90;;;;;;5094805;28;20441;-66
2023/06/19 01:37:53;;;;;;;13.57;12.37;;;19.80;99.90;;;;;;5094330;28;20556;-66
2023/06/19 01:40:25;;;;;;;13.80;12.70;;;19.90;99.90;;;;;;5094437;28;20568;-66
2023/06/19 01:42:54;;;;;;;13.83;12.63;;;19.80;99.90;;;;;;5094474;28;20546;-66
2023/06/19 01:45:21;;;;;;;11.80;10.90;;;19.80;99.90;;;;;;5094452;28;20453;-66
2023/06/19 01:47:51;;;;;;;12.77;11.57;;;19.80;99.90;;;;;;5094641;28;20496;-67
2023/06/19 01:50:18;;;;;;;12.77;11.73;;;19.80;99.90;;;;;;5094840;28;20550;-66
2023/06/19 01:52:46;;;;;;;14.60;13.40;;;19.80;99.90;;;;;;5094426;28;20483;-66
2023/06/19 01:55:12;;;;;;;14.23;13.03;;;19.80;99.90;;;;;;5094559;28;20539;-67
2023/06/19 01:57:41;;;;;;;12.20;11.20;;;19.70;99.90;;;;;;5094232;28;20460;-66
2023/06/19 02:00:10;;;;;;;13.10;12.00;;;19.70;99.90;;;;;;5094032;28;20489;-66
2023/06/19 02:02:37;;;;;;;13.07;12.07;;;19.70;99.90;;;;;;5094306;28;20457;-66
2023/06/19 02:05:04;;;;;;;13.80;12.70;;;19.70;99.90;;;;;;5094276;28;20500;-66
2023/06/19 02:07:31;;;;;;;14.73;13.37;;;19.70;99.90;;;;;;5094449;28;20841;-66
2023/06/19 02:09:58;;;;;;;13.40;12.30;;;19.70;99.90;;;;;;5094159;28;20898;-66
2023/06/19 02:12:25;;;;;;;14.50;13.20;;;19.70;99.90;;;;;;5093947;28;20481;-66
2023/06/19 02:14:53;;;;;;;14.07;12.87;;;19.70;99.90;;;;;;5094278;28;20457;-67
2023/06/19 02:17:20;;;;;;;13.40;12.17;;;19.70;99.90;;;;;;5093869;28;20489;-66
2023/06/19 02:19:47;;;;;;;13.63;12.53;;;19.80;99.90;;;;;;5093949;28;20457;-66
2023/06/19 02:22:14;;;;;;;14.50;13.30;;;19.70;99.90;;;;;;5093884;28;20473;-67
2023/06/19 02:24:40;;;;;;;13.20;12.10;;;19.70;99.90;;;;;;5096054;28;20459;-67
2023/06/19 02:27:08;;;;;;;13.93;12.40;;;19.70;99.90;;;;;;5098060;28;20519;-67
2023/06/19 02:29:34;;;;;;;13.10;11.90;;;19.70;99.90;;;;;;5098187;28;20544;-67
2023/06/19 02:32:03;;;;;;;13.70;12.40;;;19.70;99.90;;;;;;5097793;28;20449;-65
2023/06/19 02:34:30;;;;;;;14.07;12.87;;;19.70;99.90;;;;;;5098046;28;20825;-65
2023/06/19 02:36:57;;;;;;;13.37;12.30;;;19.70;99.90;;;;;;5098347;28;20449;-66
2023/06/19 02:39:24;;;;;;;13.80;12.57;;;19.70;99.90;;;;;;5098044;28;20772;-66
2023/06/19 02:41:51;;;;;;;14.57;13.37;;;19.70;99.90;;;;;;5098036;28;20481;-66
2023/06/19 02:44:18;;;;;;;13.00;12.00;;;19.70;99.90;;;;;;5097826;28;20485;-66
2023/06/19 02:46:44;;;;;;;14.33;13.03;;;19.70;99.90;;;;;;5097604;28;20548;-67
2023/06/19 02:49:13;;;;;;;13.70;12.60;;;19.70;99.90;;;;;;5097761;28;20746;-66
2023/06/19 02:51:39;;;;;;;13.03;12.03;;;19.70;99.90;;;;;;5097534;28;20906;-67
2023/06/19 02:54:06;;;;;;;14.50;13.20;;;19.80;99.90;;;;;;5097439;28;20862;-67
2023/06/19 02:56:33;;;;;;;14.60;13.40;;;19.70;99.90;;;;;;5097812;28;20790;-66
2023/06/19 02:59:00;;;;;;;14.10;12.97;;;19.70;99.90;;;;;;5097689;28;20817;-66
2023/06/19 03:01:27;;;;;;;14.33;13.20;;;19.70;99.90;;;;;;5098021;28;20560;-67
2023/06/19 03:03:54;;;;;;;14.97;13.57;;;19.70;99.90;;;;;;5097286;28;20870;-67
2023/06/19 03:06:22;;;;;;;14.13;12.70;;;19.70;99.90;;;;;;5097257;28;20500;-67
2023/06/19 03:08:49;;;;;;;14.53;13.23;;;19.70;99.90;;;;;;5097234;28;20464;-67
2023/06/19 03:11:16;;;;;;;15.20;13.90;;;19.70;99.90;;;;;;5097098;28;20461;-66
2023/06/19 03:13:50;;;;;;;14.97;13.77;;;19.70;99.90;;;;;;5097337;28;20484;-67
2023/06/19 03:16:17;;;;;;;15.03;13.43;;;19.70;99.90;;;;;;5097196;28;20482;-67
2023/06/19 03:18:48;;;;;;;14.00;12.80;;;19.70;99.90;;;;;;5097308;28;20457;-67
2023/06/19 03:21:15;;;;;;;14.87;13.47;;;19.70;99.90;;;;;;5096913;28;20473;-67
2023/06/19 03:23:43;;;;;;;15.83;14.33;;;19.70;99.90;;;;;;5097133;28;20775;-67
2023/06/19 03:26:11;;;;;;;13.90;12.80;;;19.70;99.90;;;;;;5096709;28;20555;-66
2023/06/19 03:28:37;;;;;;;16.20;14.80;;;19.70;99.90;;;;;;5097103;28;20468;-67
2023/06/19 03:31:04;;;;;;;13.97;12.77;;;19.70;99.90;;;;;;5096867;28;20449;-66
2023/06/19 03:33:31;;;;;;;14.63;13.33;;;19.70;99.90;;;;;;5096883;28;20475;-66
2023/06/19 03:35:58;;;;;;;14.63;13.43;;;19.70;99.90;;;;;;5096674;28;20532;-67
2023/06/19 03:38:25;;;;;;;14.83;13.53;;;19.70;99.90;;;;;;5096660;28;20461;-66
2023/06/19 03:40:53;;;;;;;15.03;13.67;;;19.70;99.90;;;;;;5096935;28;20829;-66
2023/06/19 03:43:20;;;;;;;15.53;14.00;;;19.70;99.90;;;;;;5096633;28;20481;-66
2023/06/19 03:45:47;;;;;;;13.93;12.73;;;19.80;99.90;;;;;;5096509;28;20457;-67
2023/06/19 03:48:16;;;;;;;13.87;12.57;;;19.80;99.90;;;;;;5096280;28;20552;-67
2023/06/19 03:50:43;;;;;;;14.13;12.40;;;19.80;99.90;;;;;;5096123;28;20497;-67
2023/06/19 03:53:10;;;;;;;14.30;13.10;;;19.80;99.90;;;;;;5096358;28;20552;-66
2023/06/19 03:55:37;;;;;;;14.03;12.70;;;19.80;99.90;;;;;;5096009;28;20457;-67
2023/06/19 03:58:06;;;;;;;14.40;13.20;;;19.90;99.90;;;;;;5096388;28;20561;-66
2023/06/19 04:00:32;;;;;;;13.23;12.13;;;19.90;99.90;;;;;;5096437;28;20453;-67
2023/06/19 04:02:59;;;;;;;13.70;12.60;;;19.90;99.90;;;;;;5096163;28;20485;-67
2023/06/19 04:05:26;;;;;;;14.00;12.80;;;19.90;99.90;;;;;;5095865;28;20549;-67
2023/06/19 04:07:53;;;;;;;15.17;13.83;;;19.90;99.90;;;;;;5096131;28;20529;-67
2023/06/19 04:10:20;;;;;;;14.30;13.00;;;19.90;99.90;;;;;;5095902;28;20906;-67
2023/06/19 04:12:48;;;;;;;15.60;14.20;;;19.90;99.90;;;;;;5095870;28;20616;-67
2023/06/19 04:15:16;;;;;;;15.23;13.83;;;20.00;99.90;;;;;;5095913;28;20458;-67
2023/06/19 04:17:43;;;;;;;14.53;13.20;;;20.00;99.90;;;;;;5096427;28;20457;-66
2023/06/19 04:20:11;;;;;;;13.03;11.93;;;20.00;99.90;;;;;;5096321;28;20514;-67
2023/06/19 04:22:39;;;;;;;14.70;13.13;;;20.10;99.90;;;;;;5095641;28;20486;-67
2023/06/19 04:25:07;;;;;;;14.50;13.30;;;20.10;99.90;;;;;;5095690;28;20493;-67
2023/06/19 04:27:34;;;;;;;14.33;13.13;;;20.10;99.90;;;;;;5095700;28;20535;-67
2023/06/19 04:30:01;;;;;;;14.67;13.27;;;20.10;99.90;;;;;;5095756;28;20489;-67
2023/06/19 04:32:29;;;;;;;15.67;14.27;;;20.10;99.90;;;;;;5095774;28;20450;-67
2023/06/19 04:34:57;;;;;;;18.30;14.10;;;20.10;99.90;;;;;;5095793;28;20539;-67
2023/06/19 04:37:26;;;;;;;14.90;13.40;;;20.20;99.90;;;;;;5095825;28;20571;-67
2023/06/19 04:39:53;;;;;;;15.23;13.83;;;20.20;99.90;;;;;;5096190;28;20467;-67
2023/06/19 04:42:20;;;;;;;15.33;14.07;;;20.20;99.90;;;;;;5096246;28;20795;-67
2023/06/19 04:44:47;;;;;;;14.17;12.90;;;20.20;99.90;;;;;;5095704;28;20454;-66
2023/06/19 04:47:15;;;;;;;16.13;14.73;;;20.20;99.90;;;;;;5094965;28;20597;-66
2023/06/19 04:49:43;;;;;;;14.80;13.63;;;20.20;99.90;;;;;;5095238;28;20518;-67
2023/06/19 04:52:11;;;;;;;15.60;14.30;;;20.10;99.90;;;;;;5095501;28;20532;-67
2023/06/19 04:54:38;;;;;;;15.33;14.03;;;20.10;99.90;;;;;;5095438;28;20457;-67
2023/06/19 04:57:06;;;;;;;16.17;14.67;;;20.10;99.90;;;;;;5095456;28;20515;-67
2023/06/19 04:59:33;;;;;;;14.83;13.63;;;20.10;99.90;;;;;;5095521;28;20845;-67
2023/06/19 05:02:00;;;;;;;15.87;14.23;;;20.10;99.90;;;;;;5095469;28;20542;-66
2023/06/19 05:04:27;;;;;;;14.57;13.37;;;20.10;99.90;;;;;;5095275;28;20616;-67
2023/06/19 05:06:55;;;;;;;15.70;14.37;;;20.10;99.90;;;;;;5095258;28;20544;-67
2023/06/19 05:09:22;;;;;;;15.20;13.90;;;20.10;99.90;;;;;;5094846;28;20468;-66
2023/06/19 05:11:49;;;;;;;25.47;22.97;;;20.10;99.90;;;;;;5094989;28;20483;-67
2023/06/19 05:14:15;;;;;;;16.23;14.93;;;20.10;99.90;;;;;;5095112;28;20635;-67
2023/06/19 05:16:42;;;;;;;15.97;14.70;;;20.10;99.90;;;;;;5095199;28;20454;-67
2023/06/19 05:19:09;;;;;;;15.70;14.30;;;20.10;99.90;;;;;;5095219;28;20453;-67
2023/06/19 05:21:36;;;;;;;15.83;14.33;;;20.10;99.90;;;;;;5095004;28;20830;-67
2023/06/19 05:24:05;;;;;;;15.80;14.50;;;20.20;99.90;;;;;;5095059;28;20457;-67
2023/06/19 05:26:31;;;;;;;15.30;13.90;;;20.20;99.90;;;;;;5094427;28;20489;-67
2023/06/19 05:29:02;;;;;;;16.73;15.23;;;20.20;99.90;;;;;;5094776;28;20457;-66
2023/06/19 05:31:28;;;;;;;15.60;14.20;;;20.30;99.90;;;;;;5094966;28;20731;-66
2023/06/19 05:33:55;;;;;;;14.90;13.50;;;20.30;99.90;;;;;;5094908;28;20544;-66
2023/06/19 05:36:22;;;;;;;16.37;15.00;;;20.30;99.90;;;;;;5095023;28;20544;-67
2023/06/19 05:38:49;;;;;;;16.90;15.17;;;20.40;99.90;;;;;;5094850;28;20513;-67
2023/06/19 05:41:20;;;;;;;19.03;17.43;;;20.50;99.90;;;;;;5094356;28;20559;-67
2023/06/19 05:43:47;;;;;;;16.20;14.60;;;20.50;99.90;;;;;;5094769;28;20530;-67
2023/06/19 05:46:17;;;;;;;15.63;14.20;;;20.50;99.90;;;;;;5094430;28;20454;-67
2023/06/19 05:48:44;;;;;;;15.63;14.33;;;20.60;99.90;;;;;;5094441;28;20463;-67
2023/06/19 05:51:13;;;;;;;17.43;15.83;;;20.60;99.90;;;;;;5094644;28;20976;-67
2023/06/19 05:53:40;;;;;;;15.63;14.10;;;20.60;99.90;;;;;;5094306;28;20536;-67
2023/06/19 05:56:07;;;;;;;15.80;14.30;;;20.60;99.90;;;;;;5094180;28;20464;-66
2023/06/19 05:58:35;;;;;;;14.87;13.57;;;20.60;99.90;;;;;;5093007;28;20457;-66
2023/06/19 06:01:02;;;;;;;15.23;13.83;;;20.60;99.90;;;;;;5094045;28;20493;-66
2023/06/19 06:03:30;;;;;;;16.40;15.00;;;20.70;99.90;;;;;;5094168;28;20481;-66
2023/06/19 06:06:02;;;;;;;16.83;15.30;;;20.70;99.90;;;;;;5093853;28;20563;-66
2023/06/19 06:08:29;;;;;;;16.87;15.33;;;20.80;99.90;;;;;;5094232;28;20441;-66
2023/06/19 06:10:56;;;;;;;15.20;13.90;;;20.90;99.90;;;;;;5093739;28;20912;-66
2023/06/19 06:13:23;;;;;;;15.37;13.97;;;20.90;99.90;;;;;;5093671;28;20947;-66
2023/06/19 06:15:51;;;;;;;15.57;14.27;;;20.90;99.90;;;;;;5093802;28;20459;-66
2023/06/19 06:18:18;;;;;;;16.30;14.90;;;21.00;99.90;;;;;;5093686;28;20874;-66
2023/06/19 06:20:45;;;;;;;17.73;16.20;;;21.00;99.90;;;;;;5093729;28;20480;-66
2023/06/19 06:23:12;;;;;;;17.73;16.10;;;21.00;99.90;;;;;;5093967;28;20568;-67
2023/06/19 06:25:39;;;;;;;16.83;15.53;;;21.00;99.90;;;;;;5093792;28;20525;-67
2023/06/19 06:28:06;;;;;;;16.07;14.77;;;21.00;99.90;;;;;;5093867;28;20552;-67
2023/06/19 06:30:32;;;;;;;15.73;14.43;;;21.00;99.90;;;;;;5093835;28;20461;-67
2023/06/19 06:33:01;;;;;;;18.97;14.60;;;21.00;99.90;;;;;;5093719;28;20849;-67
2023/06/19 06:35:28;;;;;;;14.73;13.23;;;21.00;99.90;;;;;;5093908;28;20904;-67
2023/06/19 06:37:55;;;;;;;15.70;14.40;;;21.00;99.90;;;;;;5093628;28;20453;-67
2023/06/19 06:40:22;;;;;;;15.73;14.40;;;21.00;99.90;;;;;;5093389;28;20457;-67
2023/06/19 06:42:50;;;;;;;16.20;14.90;;;21.10;99.90;;;;;;5093603;28;20572;-67
2023/06/19 06:45:20;;;;;;;17.33;15.70;;;21.10;99.90;;;;;;5093816;28;20491;-67
2023/06/19 06:47:48;;;;;;;17.30;15.60;;;21.10;99.90;;;;;;5093552;28;20453;-67
2023/06/19 06:50:16;;;;;;;15.70;14.40;;;21.10;99.90;;;;;;5093934;28;20548;-67
2023/06/19 06:52:43;;;;;;;16.67;15.20;;;21.20;99.90;;;;;;5093670;28;20545;-67
2023/06/19 06:55:10;;;;;;;17.00;15.60;;;21.20;99.90;;;;;;5093565;28;20464;-67
2023/06/19 06:57:37;;;;;;;17.27;14.73;;;21.30;99.90;;;;;;5093636;28;20464;-67
2023/06/19 07:00:09;;;;;;;16.83;15.43;;;21.30;99.90;;;;;;5093659;28;20460;-67
2023/06/19 07:02:38;;;;;;;19.67;16.00;;;21.40;99.90;;;;;;5093692;28;20787;-66
2023/06/19 07:05:05;;;;;;;16.13;14.67;;;21.40;99.90;;;;;;5094379;28;20890;-68
2023/06/19 07:07:33;;;;;;;17.03;15.33;;;21.40;99.90;;;;;;5094336;28;20453;-65
2023/06/19 07:10:03;;;;;;;16.60;15.20;;;21.40;99.90;;;;;;5095169;28;20556;-67
2023/06/19 07:12:30;;;;;;;17.80;16.30;;;21.40;99.90;;;;;;5097915;28;20487;-67
2023/06/19 07:14:57;;;;;;;14.30;13.00;;;21.50;99.90;;;;;;5097404;28;20483;-67
2023/06/19 07:17:26;;;;;;;15.73;14.47;;;21.60;99.90;;;;;;5098042;28;20531;-67
2023/06/19 07:19:52;;;;;;;15.57;14.03;;;21.60;99.90;;;;;;5097778;28;20453;-67
2023/06/19 07:22:19;;;;;;;16.13;14.63;;;21.70;99.90;;;;;;5098073;28;20483;-67
2023/06/19 07:24:48;;;;;;;17.23;15.83;;;21.80;99.90;;;;;;5097970;28;20457;-67
2023/06/19 07:27:15;;;;;;;17.40;15.70;;;21.80;99.90;;;;;;5097815;28;20456;-67
2023/06/19 07:29:42;;;;;;;18.20;16.40;;;21.90;99.90;;;;;;5097298;28;20514;-67
2023/06/19 07:32:09;;;;;;;15.33;13.93;;;22.00;99.90;;;;;;5097646;28;20548;-67
2023/06/19 07:34:36;;;;;;;16.03;14.57;;;22.10;99.90;;;;;;5098023;28;20479;-67
2023/06/19 07:37:03;;;;;;;16.37;14.70;;;22.20;99.90;;;;;;5097717;28;20514;-67
2023/06/19 07:39:30;;;;;;;15.27;13.70;;;22.20;99.90;;;;;;5097562;28;20499;-67
2023/06/19 07:41:59;;;;;;;24.53;22.13;;;22.40;99.90;;;;;;5097438;28;20522;-67
2023/06/19 07:44:26;;;;;;;20.13;18.10;;;22.40;99.90;;;;;;5097632;28;20961;-67
2023/06/19 07:46:55;;;;;;;15.87;14.47;;;22.50;99.90;;;;;;5097447;28;20453;-67
2023/06/19 07:49:22;;;;;;;16.33;14.90;;;22.60;99.90;;;;;;5098166;28;20450;-67
2023/06/19 07:51:49;;;;;;;17.23;15.53;;;22.60;99.90;;;;;;5097346;28;20948;-67
2023/06/19 07:54:19;;;;;;;16.63;15.20;;;22.70;99.90;;;;;;5097210;28;20445;-67
2023/06/19 07:56:46;;;;;;;16.70;15.20;;;22.70;99.90;;;;;;5097552;28;20799;-67
2023/06/19 07:59:14;;;;;;;16.60;15.00;;;22.70;99.90;;;;;;5097662;28;20508;-67
2023/06/19 08:01:41;;;;;;;16.80;15.10;;;22.70;99.90;;;;;;5097345;28;20457;-67
2023/06/19 08:04:08;;;;;;;15.30;13.80;;;22.70;99.90;;;;;;5097481;28;20484;-67
2023/06/19 08:06:35;;;;;;;17.50;15.80;;;22.70;99.90;;;;;;5097682;28;20532;-67
2023/06/19 08:09:03;;;;;;;16.50;15.00;;;22.70;99.90;;;;;;5097329;28;20548;-67
2023/06/19 08:11:30;;;;;;;16.57;14.97;;;22.80;99.90;;;;;;5096792;28;20457;-67
2023/06/19 08:13:57;;;;;;;15.30;14.00;;;22.80;99.90;;;;;;5097385;28;20902;-67
2023/06/19 08:16:26;;;;;;;20.60;18.13;;;22.90;99.90;;;;;;5097278;28;20540;-67
2023/06/19 08:18:53;;;;;;;15.77;14.47;;;22.90;99.90;;;;;;5097201;28;20485;-67
2023/06/19 08:21:21;;;;;;;16.17;14.87;;;23.00;99.90;;;;;;5096311;28;20493;-67
2023/06/19 08:23:48;;;;;;;15.70;14.40;;;23.00;99.90;;;;;;5097223;28;20473;-67
2023/06/19 08:26:15;;;;;;;14.83;13.40;;;23.10;99.90;;;;;;5097327;28;20544;-67
2023/06/19 08:28:42;;;;;;;16.00;14.60;;;23.20;99.90;;;;;;5096859;28;20497;-67
2023/06/19 08:31:09;;;;;;;15.50;14.00;;;23.20;99.90;;;;;;5096703;28;20463;-68
2023/06/19 08:33:37;;;;;;;16.40;14.70;;;23.20;99.90;;;;;;5096537;28;20545;-68
2023/06/19 08:36:04;;;;;;;15.87;14.50;;;23.30;99.90;;;;;;5096111;28;20460;-68
2023/06/19 08:38:31;;;;;;;14.93;13.63;;;23.30;99.90;;;;;;5096647;28;20518;-68
2023/06/19 08:40:59;;;;;;;16.20;14.60;;;23.30;99.90;;;;;;5096785;28;20457;-68
2023/06/19 08:43:26;;;;;;;15.17;13.90;;;23.30;99.90;;;;;;5096366;28;20481;-67
2023/06/19 08:46:08;;;;;;;16.27;14.67;;;23.30;99.90;;;;;;5096136;28;20492;-68
2023/06/19 08:48:37;;;;;;;14.90;13.70;;;23.30;99.90;;;;;;5096081;28;20451;-67
2023/06/19 08:51:05;;;;;;;14.10;12.70;;;23.40;99.90;;;;;;5096170;28;20556;-68
2023/06/19 08:53:34;;;;;;;17.10;15.30;;;23.40;99.90;;;;;;5096148;28;20957;-68
2023/06/19 08:56:01;;;;;;;15.80;14.33;;;23.50;99.90;;;;;;5096375;28;20457;-68
2023/06/19 08:58:28;;;;;;;20.40;14.60;;;23.50;99.90;;;;;;5096207;28;20871;-68
2023/06/19 09:00:55;;;;;;;15.70;14.40;;;23.60;99.90;;;;;;5096407;28;20464;-68
2023/06/19 09:03:22;;;;;;;15.60;14.30;;;23.60;99.90;;;;;;5095962;28;20535;-68
2023/06/19 09:05:51;;;;;;;15.43;14.00;;;23.70;99.90;;;;;;5096024;28;20544;-68
2023/06/19 09:08:18;;;;;;;15.80;14.30;;;23.70;99.90;;;;;;5096356;28;20483;-68
2023/06/19 09:10:58;;;;;;;13.93;12.80;;;23.70;99.90;;;;;;5096078;28;20867;-68
2023/06/19 09:13:25;;;;;;;15.33;13.93;;;23.80;99.90;;;;;;5095533;28;20572;-67
2023/06/19 09:16:02;;;;;;;15.90;14.40;;;23.80;99.90;;;;;;5095805;28;20563;-68
2023/06/19 09:18:31;;;;;;;16.13;14.70;;;23.80;99.90;;;;;;5095913;28;20437;-68
2023/06/19 09:21:00;;;;;;;15.63;14.23;;;23.80;99.90;;;;;;5095664;28;20464;-67
2023/06/19 09:23:26;;;;;;;15.87;14.57;;;23.90;99.90;;;;;;5096119;28;20883;-67
2023/06/19 09:25:55;;;;;;;16.30;14.50;;;23.90;99.90;;;;;;5095721;28;20517;-67
2023/06/19 09:28:23;;;;;;;15.00;13.60;;;24.00;99.90;;;;;;5095645;28;20549;-67
2023/06/19 09:30:54;;;;;;;17.97;13.90;;;24.00;99.90;;;;;;5095167;28;20540;-67
2023/06/19 09:33:21;;;;;;;14.50;13.10;;;24.10;99.90;;;;;;5095155;28;20496;-67
2023/06/19 09:35:50;;;;;;;13.53;12.43;;;24.10;99.90;;;;;;5094972;28;20457;-68
2023/06/19 09:38:22;;;;;;;14.93;13.60;;;24.10;99.90;;;;;;5095302;28;20547;-67
2023/06/19 09:40:49;;;;;;;14.57;13.37;;;24.10;99.90;;;;;;5095765;28;20476;-67
2023/06/19 09:43:20;;;;;;;15.00;13.70;;;24.20;99.90;;;;;;5095098;28;20570;-67
2023/06/19 09:45:50;;;;;;;15.63;14.20;;;24.20;99.90;;;;;;5095778;28;20438;-67
2023/06/19 09:48:23;;;;;;;15.50;14.10;;;24.30;99.90;;;;;;5095234;28;20463;-67
2023/06/19 09:50:55;;;;;;;16.30;14.83;;;24.30;99.90;;;;;;5095292;28;20448;-67
2023/06/19 09:53:24;;;;;;;14.70;13.60;;;24.40;99.90;;;;;;5095293;28;20444;-67
2023/06/19 09:55:51;;;;;;;14.87;13.57;;;24.40;99.90;;;;;;5095299;28;20475;-67
2023/06/19 09:58:20;;;;;;;14.37;13.07;;;24.40;99.90;;;;;;5094762;28;20494;-67
2023/06/19 10:00:50;;;;;;;15.50;14.00;;;24.50;99.90;;;;;;5095247;28;20540;-67
2023/06/19 10:03:18;;;;;;;15.70;14.27;;;24.50;99.90;;;;;;5095360;28;20573;-67
2023/06/19 10:05:45;;;;;;;15.10;13.70;;;24.50;99.90;;;;;;5094951;28;20550;-68
2023/06/19 10:08:12;;;;;;;16.20;14.80;;;24.60;99.90;;;;;;5095134;28;20499;-68
2023/06/19 10:10:47;;;;;;;15.10;13.80;;;24.70;99.90;;;;;;5095428;28;20489;-68
2023/06/19 10:13:16;;;;;;;15.07;13.80;;;24.70;99.90;;;;;;5095831;28;20590;-68
2023/06/19 10:15:47;;;;;;;15.67;14.37;;;24.80;99.90;;;;;;5094877;28;20874;-68
2023/06/19 10:18:17;;;;;;;15.60;14.20;;;24.90;99.90;;;;;;5094355;28;20441;-66
2023/06/19 10:20:44;;;;;;;15.67;14.27;;;25.00;99.90;;;;;;5094962;28;20457;-67
2023/06/19 10:23:16;;;;;;;18.10;16.40;;;25.10;99.90;;;;;;5094958;28;20503;-67
2023/06/19 10:25:47;;;;;;;15.40;14.20;;;25.20;99.90;;;;;;5095124;28;20829;-67
2023/06/19 10:28:18;;;;;;;15.87;14.27;;;25.30;99.90;;;;;;5095255;28;20473;-67
2023/06/19 10:30:45;;;;;;;15.93;14.63;;;25.40;99.90;;;;;;5095426;28;20445;-67
2023/06/19 10:33:12;;;;;;;15.77;14.40;;;25.50;99.90;;;;;;5096076;28;20453;-68
2023/06/19 10:35:40;;;;;;;15.37;13.87;;;25.60;99.90;;;;;;5095290;28;20492;-67
2023/06/19 10:38:08;;;;;;;16.40;14.80;;;25.60;99.90;;;;;;5095467;28;20468;-67
2023/06/19 10:40:38;;;;;;;20.47;18.70;;;25.60;99.90;;;;;;5095677;28;20461;-67
2023/06/19 10:43:10;;;;;;;14.30;13.00;;;25.70;99.90;;;;;;5095964;28;20540;-67
2023/06/19 10:45:37;;;;;;;14.30;13.07;;;25.70;99.90;;;;;;5098150;28;20873;-67
2023/06/19 10:48:06;;;;;;;14.67;13.37;;;25.70;99.90;;;;;;5099742;28;20548;-67
2023/06/19 10:50:36;;;;;;;15.40;14.00;;;25.70;99.90;;;;;;5099707;28;20550;-67
2023/06/19 10:53:03;;;;;;;15.13;13.60;;;25.70;99.90;;;;;;5099512;28;20478;-67
2023/06/19 10:55:30;;;;;;;15.73;14.20;;;25.70;99.90;;;;;;5100371;28;20479;-67
2023/06/19 10:57:57;;;;;;;15.00;13.60;;;25.80;99.90;;;;;;5100398;28;20470;-68
2023/06/19 11:00:27;;;;;;;14.57;13.37;;;25.80;99.90;;;;;;5100394;28;20457;-68
2023/06/19 11:02:54;;;;;;;15.47;14.10;;;25.80;99.90;;;;;;5099894;28;20504;-68
2023/06/19 11:05:22;;;;;;;14.23;13.03;;;25.80;99.90;;;;;;5100357;28;20532;-68
2023/06/19 11:07:53;;;;;;;15.10;13.80;;;25.80;99.90;;;;;;5100056;28;20511;-68
2023/06/19 11:10:22;;;;;;;14.30;12.97;;;25.80;99.90;;;;;;5098691;28;20461;-68
2023/06/19 11:12:49;;;;;;;14.87;13.67;;;25.80;99.90;;;;;;5098373;28;20492;-68
2023/06/19 11:15:16;;;;;;;13.17;12.10;;;25.90;99.90;;;;;;5098988;28;20454;-68
2023/06/19 11:17:44;;;;;;;14.23;13.10;;;26.00;99.90;;;;;;5098963;28;20846;-68
2023/06/19 11:20:13;;;;;;;14.07;12.97;;;26.00;99.90;;;;;;5098502;28;20901;-68
2023/06/19 11:22:41;;;;;;;13.40;12.40;;;26.10;99.90;;;;;;5098639;28;20458;-68
2023/06/19 11:25:10;;;;;;;14.80;13.50;;;26.20;99.90;;;;;;5098388;28;20481;-68
2023/06/19 11:27:39;;;;;;;13.43;12.10;;;26.20;99.90;;;;;;5098584;28;20453;-68
2023/06/19 11:30:07;;;;;;;14.30;13.20;;;26.20;99.90;;;;;;5098093;28;20970;-68
2023/06/19 11:32:40;;;;;;;12.30;11.33;;;26.20;99.90;;;;;;5097438;28;20552;-68
2023/06/19 11:35:11;;;;;;;13.57;12.37;;;26.30;99.90;;;;;;5098215;28;20750;-68
2023/06/19 11:37:40;;;;;;;12.93;11.87;;;26.40;99.90;;;;;;5098264;28;20813;-68
2023/06/19 11:40:14;;;;;;;14.07;12.77;;;26.50;99.90;;;;;;5097966;28;20556;-68
2023/06/19 11:42:49;;;;;;;12.97;11.87;;;26.80;99.90;;;;;;5098347;28;20448;-69
2023/06/19 11:45:17;;;;;;;14.50;13.30;;;27.30;99.90;;;;;;5097944;28;20461;-68
2023/06/19 11:47:45;;;;;;;13.00;11.77;;;28.00;99.90;;;;;;5097890;28;20597;-68
2023/06/19 11:50:15;;;;;;;12.93;11.93;;;28.90;99.90;;;;;;5097912;28;20452;-68
2023/06/19 11:52:44;;;;;;;12.27;11.27;;;29.40;99.90;;;;;;5097764;28;20775;-68
2023/06/19 11:55:11;;;;;;;12.33;11.33;;;29.50;99.90;;;;;;5098335;28;20893;-68
2023/06/19 11:57:40;;;;;;;12.20;11.10;;;29.50;99.90;;;;;;5097645;28;20457;-68
2023/06/19 12:00:17;;;;;;;12.10;11.10;;;29.50;99.90;;;;;;5098116;28;20466;-68
2023/06/19 12:02:47;;;;;;;12.57;11.57;;;29.50;99.90;;;;;;5098115;28;20441;-68
2023/06/19 12:05:15;;;;;;;12.63;11.53;;;29.70;99.90;;;;;;5097512;28;20957;-68
2023/06/19 12:07:43;;;;;;;12.40;11.40;;;29.80;99.90;;;;;;5097726;28;20514;-68
2023/06/19 12:10:11;;;;;;;12.63;11.40;;;29.80;98.70;;;;;;5097208;28;20775;-68
2023/06/19 12:12:39;;;;;;;12.30;10.83;;;29.70;97.90;;;;;;5097250;28;20568;-68
2023/06/19 12:15:07;;;;;;;12.63;11.63;;;29.70;98.50;;;;;;5097323;28;20591;-68
2023/06/19 12:17:34;;;;;;;12.97;11.70;;;29.70;98.40;;;;;;5097346;28;20467;-68
2023/06/19 12:20:01;;;;;;;12.90;11.70;;;29.60;98.70;;;;;;5097030;28;20457;-68
2023/06/19 12:22:29;;;;;;;12.37;11.27;;;29.60;98.10;;;;;;5097237;28;20870;-68
2023/06/19 12:24:56;;;;;;;11.23;10.33;;;29.60;95.20;;;;;;5097105;28;20995;-68
2023/06/19 12:27:25;;;;;;;13.00;11.87;;;29.50;95.50;;;;;;5097512;28;20548;-68
2023/06/19 12:29:52;;;;;;;11.97;11.07;;;29.50;96.10;;;;;;5097095;28;20536;-68
2023/06/19 12:32:21;;;;;;;12.17;11.17;;;29.60;94.10;;;;;;5097188;28;20449;-68